Time;durP1;ratioP1;P1;durP2;ratioP2;P2;SDS_P1;SDS_P2;PMS_P1;PMS_P2;Temp;Humidity;BMP_temperature;BMP_pressure;BME280_temperature;BME280_humidity;BME280_pressure;Samples;Min_cycle;Max_cycle;Signal;HPM_P1;HPM_P2
2021/10/09 00:00:18;;;;;;;;;;;;;;;;;;2107089;28;1314;-84
2021/10/09 00:01:22;;;;;;;;;;;;;;;;;;2122164;28;1308;-84
2021/10/09 00:02:23;;;;;;;;;;;;;;;;;;2123206;28;1362;-85
2021/10/09 00:03:25;;;;;;;;;;;;;;;;;;2115703;28;1351;-84
2021/10/09 00:04:25;;;;;;;;;;;;;;;;;;2115197;28;1352;-85
2021/10/09 00:05:27;;;;;;;;;;;;;;;;;;2114893;28;1901;-86
2021/10/09 00:06:28;;;;;;;;;;;;;;;;;;2115508;28;1229;-85
2021/10/09 00:07:31;;;;;;;;;;;;;;;;;;2113749;28;1935;-87
2021/10/09 00:08:32;;;;;;;;;;;;;;;;;;2106535;28;1400;-86
2021/10/09 00:09:33;;;;;;;;;;;;;;;;;;2107664;28;1237;-86
2021/10/09 00:10:34;;;;;;;;;;;;;;;;;;2106210;28;1434;-86
2021/10/09 00:11:37;;;;;;;;;;;;;;;;;;2107769;28;1282;-86
2021/10/09 00:12:39;;;;;;;;;;;;;;;;;;2113681;28;1879;-85
2021/10/09 00:13:41;;;;;;;;;;;;;;;;;;2116225;28;1396;-85
2021/10/09 00:14:41;;;;;;;;;;;;;;;;;;2107596;28;1383;-85
2021/10/09 00:15:43;;;;;;;;;;;;;;;;;;2111386;28;2004;-86
2021/10/09 00:16:46;;;;;;;;;;;;;;;;;;2115741;28;1225;-86
2021/10/09 00:17:48;;;;;;;;;;;;;;;;;;2107553;28;1937;-86
2021/10/09 00:18:48;;;;;;;;;;;;;;;;;;2107729;28;1327;-85
2021/10/09 00:19:50;;;;;;;;;;;;;;;;;;2107758;28;1400;-85
2021/10/09 00:20:51;;;;;;;;;;;;;;;;;;2107691;28;1310;-86
2021/10/09 00:21:53;;;;;;;;;;;;;;;;;;2107476;28;1897;-87
2021/10/09 00:22:53;;;;;;;;;;;;;;;;;;2108285;28;1463;-86
2021/10/09 00:23:55;;;;;;;;;;;;;;;;;;2107759;28;1241;-85
2021/10/09 00:24:56;;;;;;;;;;;;;;;;;;2107196;28;1341;-85
2021/10/09 00:25:58;;;;;;;;;;;;;;;;;;2107781;28;1234;-85
2021/10/09 00:26:58;;;;;;;;;;;;;;;;;;2107825;28;1867;-87
2021/10/09 00:28:02;;;;;;;;;;;;;;;;;;2107748;28;1335;-85
2021/10/09 00:29:02;;;;;;;;;;;;;;;;;;2107605;28;1251;-85
2021/10/09 00:30:05;;;;;;;;;;;;;;;;;;2107922;28;1341;-85
2021/10/09 00:31:06;;;;;;;;;;;;;;;;;;2114500;28;2130;-86
2021/10/09 00:32:08;;;;;;;;;;;;;;;;;;2106659;28;1860;-86
2021/10/09 00:33:10;;;;;;;;;;;;;;;;;;2107712;28;1429;-86
2021/10/09 00:34:11;;;;;;;;;;;;;;;;;;2107846;28;1523;-86
2021/10/09 00:35:12;;;;;;;;;;;;;;;;;;2107494;28;1294;-85
2021/10/09 00:36:13;;;;;;;;;;;;;;;;;;2107433;28;1207;-85
2021/10/09 00:37:15;;;;;;;;;;;;;;;;;;2110076;28;1910;-85
2021/10/09 00:38:16;;;;;;;;;;;;;;;;;;2124091;28;1983;-85
2021/10/09 00:39:17;;;;;;;;;;;;;;;;;;2124323;28;1333;-84
2021/10/09 00:40:19;;;;;;;;;;;;;;;;;;2108054;28;2015;-85
2021/10/09 00:41:20;;;;;;;;;;;;;;;;;;2115891;28;1309;-84
2021/10/09 00:42:22;;;;;;;;;;;;;;;;;;2119787;27;2115;-84
2021/10/09 00:43:24;;;;;;;;;;;;;;;;;;2108502;28;1391;-84
2021/10/09 00:44:26;;;;;;;;;;;;;;;;;;2109400;28;1320;-84
2021/10/09 00:45:28;;;;;;;;;;;;;;;;;;2109713;28;2098;-85
2021/10/09 00:46:28;;;;;;;;;;;;;;;;;;2108454;28;1352;-84
2021/10/09 00:47:30;;;;;;;;;;;;;;;;;;2114021;28;1918;-85
2021/10/09 00:48:32;;;;;;;;;;;;;;;;;;2117484;28;1225;-85
2021/10/09 00:49:35;;;;;;;;;;;;;;;;;;2117699;28;887;-86
2021/10/09 00:50:37;;;;;;;;;;;;;;;;;;2117313;28;1450;-85
2021/10/09 00:51:38;;;;;;;;;;;;;;;;;;2109126;28;1303;-85
2021/10/09 00:52:41;;;;;;;;;;;;;;;;;;2109141;28;1954;-85
2021/10/09 00:53:45;;;;;;;;;;;;;;;;;;2109453;28;1353;-86
2021/10/09 00:54:48;;;;;;;;;;;;;;;;;;2109549;28;1246;-86
2021/10/09 00:55:51;;;;;;;;;;;;;;;;;;2122236;27;1883;-85
2021/10/09 00:56:57;;;;;;;;;;;;;;;;;;2117178;27;1897;-86
2021/10/09 00:57:57;;;;;;;;;;;;;;;;;;2117889;28;1305;-85
2021/10/09 00:59:02;;;;;;;;;;;;;;;;;;2117315;28;1380;-85
2021/10/09 01:00:05;;;;;;;;;;;;;;;;;;2108959;28;1210;-86
2021/10/09 01:01:06;;;;;;;;;;;;;;;;;;2107857;28;2072;-85
2021/10/09 01:02:08;;;;;;;;;;;;;;;;;;2106908;28;2037;-85
2021/10/09 01:03:09;;;;;;;;;;;;;;;;;;2109092;28;1307;-85
2021/10/09 01:04:11;;;;;;;;;;;;;;;;;;2108989;28;1461;-85
2021/10/09 01:05:12;;;;;;;;;;;;;;;;;;2109018;28;1244;-85
2021/10/09 01:06:14;;;;;;;;;;;;;;;;;;2125475;27;1342;-86
2021/10/09 01:07:15;;;;;;;;;;;;;;;;;;2111956;28;1867;-85
2021/10/09 01:08:19;;;;;;;;;;;;;;;;;;2109197;28;1523;-86
2021/10/09 01:09:20;;;;;;;;;;;;;;;;;;2109120;28;1367;-85
2021/10/09 01:10:21;;;;;;;;;;;;;;;;;;2116350;27;1885;-86
2021/10/09 01:11:22;;;;;;;;;;;;;;;;;;2126001;27;1279;-85
2021/10/09 01:12:24;;;;;;;;;;;;;;;;;;2124531;27;1950;-85
2021/10/09 01:13:25;;;;;;;;;;;;;;;;;;2125750;27;1238;-85
2021/10/09 01:14:28;;;;;;;;;;;;;;;;;;2117408;28;1309;-85
2021/10/09 01:15:32;;;;;;;;;;;;;;;;;;2109361;28;2086;-86
2021/10/09 01:16:34;;;;;;;;;;;;;;;;;;2117069;28;1548;-86
2021/10/09 01:17:36;;;;;;;;;;;;;;;;;;2114855;27;1838;-86
2021/10/09 01:18:37;;;;;;;;;;;;;;;;;;2108727;28;1898;-85
2021/10/09 01:19:39;;;;;;;;;;;;;;;;;;2117393;28;1363;-85
2021/10/09 01:21:01;;;;;;;;;;;;;;;;;;2116543;27;1869;-85
2021/10/09 01:22:05;;;;;;;;;;;;;;;;;;2125180;27;2027;-85
2021/10/09 01:23:07;;;;;;;;;;;;;;;;;;2125559;27;1208;-85
2021/10/09 01:24:12;;;;;;;;;;;;;;;;;;2118017;27;1328;-85
2021/10/09 01:25:14;;;;;;;;;;;;;;;;;;2116953;28;2028;-87
2021/10/09 01:26:16;;;;;;;;;;;;;;;;;;2116648;28;1233;-86
2021/10/09 01:27:17;;;;;;;;;;;;;;;;;;2111768;28;1819;-86
2021/10/09 01:28:20;;;;;;;;;;;;;;;;;;2108907;28;1389;-85
2021/10/09 01:29:21;;;;;;;;;;;;;;;;;;2109359;28;1518;-85
2021/10/09 01:30:26;;;;;;;;;;;;;;;;;;2117566;27;2093;-85
2021/10/09 01:31:27;;;;;;;;;;;;;;;;;;2117272;28;1210;-85
2021/10/09 01:32:29;;;;;;;;;;;;;;;;;;2113098;28;1899;-85
2021/10/09 01:33:30;;;;;;;;;;;;;;;;;;2117247;28;1340;-85
2021/10/09 01:34:32;;;;;;;;;;;;;;;;;;2116751;28;1218;-85
2021/10/09 01:35:55;;;;;;;;;;;;;;;;;;2116948;27;2073;-84
2021/10/09 01:37:03;;;;;;;;;;;;;;;;;;2117709;27;1783;-84
2021/10/09 01:38:08;;;;;;;;;;;;;;;;;;2117565;28;1238;-85
2021/10/09 01:39:11;;;;;;;;;;;;;;;;;;2108439;28;1914;-86
2021/10/09 01:40:29;;;;;;;;;;;;;;;;;;2113685;27;2042;-85
2021/10/09 01:41:51;;;;;;;;;;;;;;;;;;2122334;27;1049;-85
2021/10/09 01:42:56;;;;;;;;;;;;;;;;;;2117001;28;1344;-85
2021/10/09 01:43:58;;;;;;;;;;;;;;;;;;2117277;28;1295;-85
2021/10/09 01:45:00;;;;;;;;;;;;;;;;;;2117002;28;1274;-85
2021/10/09 01:46:01;;;;;;;;;;;;;;;;;;2108725;28;1309;-85
2021/10/09 01:47:02;;;;;;;;;;;;;;;;;;2109462;28;1922;-86
2021/10/09 01:48:06;;;;;;;;;;;;;;;;;;2117303;28;1717;-85
2021/10/09 01:49:09;;;;;;;;;;;;;;;;;;2108368;28;1524;-86
2021/10/09 01:50:11;;;;;;;;;;;;;;;;;;2108725;28;1230;-85
2021/10/09 01:51:14;;;;;;;;;;;;;;;;;;2116737;27;2154;-85
2021/10/09 01:52:15;;;;;;;;;;;;;;;;;;2115926;28;1879;-86
2021/10/09 01:53:17;;;;;;;;;;;;;;;;;;2108601;28;1309;-85
2021/10/09 01:54:18;;;;;;;;;;;;;;;;;;2108373;28;1411;-85
2021/10/09 01:55:20;;;;;;;;;;;;;;;;;;2109243;28;2003;-85
2021/10/09 01:56:23;;;;;;;;;;;;;;;;;;2108245;28;1340;-85
2021/10/09 01:57:25;;;;;;;;;;;;;;;;;;2109127;28;2097;-85
2021/10/09 01:58:26;;;;;;;;;;;;;;;;;;2107781;28;1901;-85
2021/10/09 01:59:28;;;;;;;;;;;;;;;;;;2108499;28;1303;-85
2021/10/09 02:00:35;;;;;;;;;;;;;;;;;;2117483;27;1942;-85
2021/10/09 02:01:38;;;;;;;;;;;;;;;;;;2108869;28;1312;-85
2021/10/09 02:02:39;;;;;;;;;;;;;;;;;;2108433;27;1969;-85
2021/10/09 02:03:42;;;;;;;;;;;;;;;;;;2108640;28;1368;-85
2021/10/09 02:04:44;;;;;;;;;;;;;;;;;;2108809;28;1321;-85
2021/10/09 02:05:46;;;;;;;;;;;;;;;;;;2112470;28;2016;-85
2021/10/09 02:06:49;;;;;;;;;;;;;;;;;;2116944;28;1498;-84
2021/10/09 02:07:51;;;;;;;;;;;;;;;;;;2124960;27;2004;-85
2021/10/09 02:08:52;;;;;;;;;;;;;;;;;;2116981;28;1361;-85
2021/10/09 02:09:53;;;;;;;;;;;;;;;;;;2117014;28;1491;-85
2021/10/09 02:10:57;;;;;;;;;;;;;;;;;;2116180;28;1987;-85
2021/10/09 02:11:59;;;;;;;;;;;;;;;;;;2124816;27;1901;-86
2021/10/09 02:13:04;;;;;;;;;;;;;;;;;;2116688;28;1263;-85
2021/10/09 02:14:14;;;;;;;;;;;;;;;;;;2108908;28;1365;-85
2021/10/09 02:15:18;;;;;;;;;;;;;;;;;;2109808;28;1194;-85
2021/10/09 02:16:45;;;;;;;;;;;;;;;;;;2108701;28;1294;-85
2021/10/09 02:18:03;;;;;;;;;;;;;;;;;;2115240;28;2022;-85
2021/10/09 02:24:32;;;;;;;;;;;;;;;;;;2110465;28;1297;-84
2021/10/09 02:25:39;;;;;;;;;;;;;;;;;;2117982;27;1994;-84
2021/10/09 02:26:41;;;;;;;;;;;;;;;;;;2116999;28;1343;-84
2021/10/09 02:27:42;;;;;;;;;;;;;;;;;;2114559;28;1839;-84
2021/10/09 02:28:44;;;;;;;;;;;;;;;;;;2108072;28;1372;-84
2021/10/09 02:29:44;;;;;;;;;;;;;;;;;;2108260;28;1429;-84
2021/10/09 02:30:47;;;;;;;;;;;;;;;;;;2112076;28;2075;-84
2021/10/09 02:31:50;;;;;;;;;;;;;;;;;;2108661;28;1337;-85
2021/10/09 02:32:52;;;;;;;;;;;;;;;;;;2116151;28;1846;-84
2021/10/09 02:33:54;;;;;;;;;;;;;;;;;;2108325;28;1497;-84
2021/10/09 02:34:55;;;;;;;;;;;;;;;;;;2108076;28;1328;-84
2021/10/09 02:35:56;;;;;;;;;;;;;;;;;;2108185;28;1860;-84
2021/10/09 02:36:57;;;;;;;;;;;;;;;;;;2108729;27;1956;-84
2021/10/09 02:37:59;;;;;;;;;;;;;;;;;;2107740;28;1405;-84
2021/10/09 02:39:02;;;;;;;;;;;;;;;;;;2108259;28;1914;-85
2021/10/09 02:40:05;;;;;;;;;;;;;;;;;;2108435;28;1258;-84
2021/10/09 02:41:06;;;;;;;;;;;;;;;;;;2115972;28;2070;-84
2021/10/09 02:42:08;;;;;;;;;;;;;;;;;;2108038;28;1325;-84
2021/10/09 02:43:09;;;;;;;;;;;;;;;;;;2108049;28;1439;-84
2021/10/09 02:44:12;;;;;;;;;;;;;;;;;;2108552;28;1336;-84
2021/10/09 02:45:13;;;;;;;;;;;;;;;;;;2116342;28;898;-83
2021/10/09 02:46:15;;;;;;;;;;;;;;;;;;2124897;27;1314;-85
2021/10/09 02:47:16;;;;;;;;;;;;;;;;;;2115939;28;1907;-84
2021/10/09 02:48:18;;;;;;;;;;;;;;;;;;2116492;28;1268;-84
2021/10/09 02:49:21;;;;;;;;;;;;;;;;;;2108429;28;1348;-84
2021/10/09 02:50:23;;;;;;;;;;;;;;;;;;2108940;28;1813;-84
2021/10/09 02:51:24;;;;;;;;;;;;;;;;;;2116654;28;1300;-84
2021/10/09 02:52:27;;;;;;;;;;;;;;;;;;2116033;28;1336;-85
2021/10/09 02:53:29;;;;;;;;;;;;;;;;;;2108352;28;1294;-84
2021/10/09 02:54:33;;;;;;;;;;;;;;;;;;2108192;28;1396;-84
2021/10/09 02:55:35;;;;;;;;;;;;;;;;;;2108768;28;2042;-85
2021/10/09 02:56:37;;;;;;;;;;;;;;;;;;2107589;28;1217;-84
2021/10/09 02:57:39;;;;;;;;;;;;;;;;;;2108299;28;2100;-85
2021/10/09 02:58:44;;;;;;;;;;;;;;;;;;2108237;28;1487;-87
2021/10/09 02:59:48;;;;;;;;;;;;;;;;;;2117349;28;1280;-84
2021/10/09 03:00:51;;;;;;;;;;;;;;;;;;2121521;27;2042;-85
2021/10/09 03:01:53;;;;;;;;;;;;;;;;;;2125163;27;1326;-85
2021/10/09 03:02:56;;;;;;;;;;;;;;;;;;2116012;28;1315;-85
2021/10/09 03:03:58;;;;;;;;;;;;;;;;;;2116858;28;1341;-84
2021/10/09 03:05:03;;;;;;;;;;;;;;;;;;2124426;27;1328;-85
2021/10/09 03:06:03;;;;;;;;;;;;;;;;;;2123806;27;2034;-85
2021/10/09 03:07:08;;;;;;;;;;;;;;;;;;2124015;27;2000;-83
2021/10/09 03:08:11;;;;;;;;;;;;;;;;;;2116683;28;1295;-83
2021/10/09 03:09:12;;;;;;;;;;;;;;;;;;2116328;28;1270;-83
2021/10/09 03:10:16;;;;;;;;;;;;;;;;;;2116196;28;2006;-86
2021/10/09 03:11:18;;;;;;;;;;;;;;;;;;2124808;27;1178;-83
2021/10/09 03:12:21;;;;;;;;;;;;;;;;;;2115985;28;2237;-83
2021/10/09 03:13:22;;;;;;;;;;;;;;;;;;2107702;28;1286;-82
2021/10/09 03:14:25;;;;;;;;;;;;;;;;;;2108332;28;1446;-83
2021/10/09 03:15:26;;;;;;;;;;;;;;;;;;2116538;27;1983;-84
2021/10/09 03:16:30;;;;;;;;;;;;;;;;;;2116515;28;1213;-82
2021/10/09 03:17:32;;;;;;;;;;;;;;;;;;2116095;28;1296;-84
2021/10/09 03:18:37;;;;;;;;;;;;;;;;;;2108397;28;1182;-84
2021/10/09 03:19:40;;;;;;;;;;;;;;;;;;2116665;28;1969;-83
2021/10/09 03:20:43;;;;;;;;;;;;;;;;;;2118416;27;1865;-83
2021/10/09 03:21:46;;;;;;;;;;;;;;;;;;2125006;27;1377;-83
2021/10/09 03:22:48;;;;;;;;;;;;;;;;;;2116211;28;1223;-83
2021/10/09 03:23:50;;;;;;;;;;;;;;;;;;2116445;27;1162;-83
2021/10/09 03:24:52;;;;;;;;;;;;;;;;;;2116440;28;1236;-83
2021/10/09 03:25:56;;;;;;;;;;;;;;;;;;2110460;28;2059;-83
2021/10/09 03:26:56;;;;;;;;;;;;;;;;;;2107558;28;1142;-83
2021/10/09 03:28:00;;;;;;;;;;;;;;;;;;2108231;28;1361;-83
2021/10/09 03:29:01;;;;;;;;;;;;;;;;;;2108185;28;1185;-83
2021/10/09 03:30:05;;;;;;;;;;;;;;;;;;2108121;28;1496;-83
2021/10/09 03:31:10;;;;;;;;;;;;;;;;;;2108495;28;2011;-82
2021/10/09 03:32:11;;;;;;;;;;;;;;;;;;2110052;28;2024;-84
2021/10/09 03:33:14;;;;;;;;;;;;;;;;;;2124826;27;1310;-83
2021/10/09 03:34:16;;;;;;;;;;;;;;;;;;2115905;28;1431;-83
2021/10/09 03:35:20;;;;;;;;;;;;;;;;;;2115827;28;2019;-83
2021/10/09 03:36:24;;;;;;;;;;;;;;;;;;2108377;28;1460;-83
2021/10/09 03:37:26;;;;;;;;;;;;;;;;;;2116493;28;1308;-82
2021/10/09 03:38:27;;;;;;;;;;;;;;;;;;2115877;28;1618;-83
2021/10/09 03:39:30;;;;;;;;;;;;;;;;;;2116532;27;1957;-83
2021/10/09 03:40:33;;;;;;;;;;;;;;;;;;2117974;27;1433;-84
2021/10/09 03:41:41;;;;;;;;;;;;;;;;;;2124757;27;1394;-84
2021/10/09 03:42:46;;;;;;;;;;;;;;;;;;2122953;27;2071;-82
2021/10/09 03:43:47;;;;;;;;;;;;;;;;;;2124496;27;1565;-81
2021/10/09 03:44:53;;;;;;;;;;;;;;;;;;2115600;28;1320;-81
2021/10/09 03:46:02;;;;;;;;;;;;;;;;;;2121296;27;1923;-82
2021/10/09 03:47:12;;;;;;;;;;;;;;;;;;2115874;28;2025;-83
2021/10/09 03:48:23;;;;;;;;;;;;;;;;;;2108487;28;1284;-83
2021/10/09 03:49:36;;;;;;;;;;;;;;;;;;2109412;28;1407;-83
2021/10/09 03:53:16;;;;;;;;;;;;;;;;;;2110423;28;1472;-84
2021/10/09 03:54:18;;;;;;;;;;;;;;;;;;2107785;28;1187;-84
2021/10/09 03:55:19;;;;;;;;;;;;;;;;;;2107577;28;2059;-83
2021/10/09 03:56:24;;;;;;;;;;;;;;;;;;2108507;28;1218;-83
2021/10/09 03:57:27;;;;;;;;;;;;;;;;;;2111820;28;1855;-81
2021/10/09 03:58:29;;;;;;;;;;;;;;;;;;2115881;28;1183;-81
2021/10/09 03:59:29;;;;;;;;;;;;;;;;;;2107220;28;1977;-81
2021/10/09 04:00:31;;;;;;;;;;;;;;;;;;2107572;28;2012;-82
2021/10/09 04:01:36;;;;;;;;;;;;;;;;;;2116786;28;1296;-82
2021/10/09 04:02:40;;;;;;;;;;;;;;;;;;2114997;28;1904;-82
2021/10/09 04:03:40;;;;;;;;;;;;;;;;;;2107786;28;1357;-82
2021/10/09 04:04:42;;;;;;;;;;;;;;;;;;2107487;28;1345;-81
2021/10/09 04:05:44;;;;;;;;;;;;;;;;;;2107518;28;1453;-82
2021/10/09 04:06:46;;;;;;;;;;;;;;;;;;2107682;28;1487;-81
2021/10/09 04:07:48;;;;;;;;;;;;;;;;;;2107922;28;1858;-81
2021/10/09 04:08:50;;;;;;;;;;;;;;;;;;2107843;28;1277;-82
2021/10/09 04:09:52;;;;;;;;;;;;;;;;;;2107194;28;1320;-81
2021/10/09 04:10:52;;;;;;;;;;;;;;;;;;2111948;28;1888;-82
2021/10/09 04:11:55;;;;;;;;;;;;;;;;;;2107622;28;1994;-82
2021/10/09 04:12:57;;;;;;;;;;;;;;;;;;2107320;28;1437;-81
2021/10/09 04:14:01;;;;;;;;;;;;;;;;;;2107947;28;1383;-81
2021/10/09 04:15:03;;;;;;;;;;;;;;;;;;2107867;28;1329;-81
2021/10/09 04:16:07;;;;;;;;;;;;;;;;;;2108092;28;1472;-83
2021/10/09 04:17:09;;;;;;;;;;;;;;;;;;2110578;28;1468;-81
2021/10/09 04:18:11;;;;;;;;;;;;;;;;;;2117287;28;1420;-81
2021/10/09 04:19:14;;;;;;;;;;;;;;;;;;2109231;28;1969;-81
2021/10/09 04:20:17;;;;;;;;;;;;;;;;;;2109142;27;2024;-82
2021/10/09 04:21:20;;;;;;;;;;;;;;;;;;2109495;28;1392;-81
2021/10/09 04:22:25;;;;;;;;;;;;;;;;;;2113102;28;1899;-81
2021/10/09 04:23:27;;;;;;;;;;;;;;;;;;2117650;27;1443;-81
2021/10/09 04:24:30;;;;;;;;;;;;;;;;;;2117594;28;1541;-81
2021/10/09 04:25:33;;;;;;;;;;;;;;;;;;2115477;28;1980;-82
2021/10/09 04:26:34;;;;;;;;;;;;;;;;;;2109261;28;1178;-82
2021/10/09 04:27:38;;;;;;;;;;;;;;;;;;2114765;28;1884;-82
2021/10/09 04:28:42;;;;;;;;;;;;;;;;;;2117462;28;1526;-82
2021/10/09 04:29:44;;;;;;;;;;;;;;;;;;2117935;28;1484;-82
2021/10/09 04:30:45;;;;;;;;;;;;;;;;;;2112872;28;2098;-82
2021/10/09 04:31:49;;;;;;;;;;;;;;;;;;2117957;28;1437;-81
2021/10/09 04:32:51;;;;;;;;;;;;;;;;;;2117268;28;1343;-82
2021/10/09 04:33:53;;;;;;;;;;;;;;;;;;2117619;28;1245;-83
2021/10/09 04:34:57;;;;;;;;;;;;;;;;;;2117687;28;1376;-83
2021/10/09 04:35:58;;;;;;;;;;;;;;;;;;2118113;27;1994;-83
2021/10/09 04:37:01;;;;;;;;;;;;;;;;;;2117623;27;1790;-84
2021/10/09 04:38:08;;;;;;;;;;;;;;;;;;2117586;28;1217;-83
2021/10/09 04:39:11;;;;;;;;;;;;;;;;;;2109981;28;1365;-83
2021/10/09 04:40:12;;;;;;;;;;;;;;;;;;2109243;28;1878;-83
2021/10/09 04:41:16;;;;;;;;;;;;;;;;;;2109840;28;1240;-84
2021/10/09 04:42:17;;;;;;;;;;;;;;;;;;2111573;28;1833;-83
2021/10/09 04:43:19;;;;;;;;;;;;;;;;;;2109029;28;1490;-83
2021/10/09 04:44:22;;;;;;;;;;;;;;;;;;2117198;28;1380;-84
2021/10/09 04:45:26;;;;;;;;;;;;;;;;;;2110576;27;1849;-83
2021/10/09 04:46:26;;;;;;;;;;;;;;;;;;2117648;28;1319;-83
2021/10/09 04:47:28;;;;;;;;;;;;;;;;;;2113853;28;1863;-83
2021/10/09 04:48:29;;;;;;;;;;;;;;;;;;2117234;28;1304;-83
2021/10/09 04:49:32;;;;;;;;;;;;;;;;;;2117734;28;1309;-83
2021/10/09 04:50:35;;;;;;;;;;;;;;;;;;2116999;27;2000;-84
2021/10/09 04:51:39;;;;;;;;;;;;;;;;;;2117341;28;1360;-83
2021/10/09 04:52:39;;;;;;;;;;;;;;;;;;2123641;27;1767;-84
2021/10/09 04:53:42;;;;;;;;;;;;;;;;;;2126218;27;1654;-83
2021/10/09 04:54:43;;;;;;;;;;;;;;;;;;2125906;27;1450;-82
2021/10/09 04:55:48;;;;;;;;;;;;;;;;;;2113417;28;1535;-83
2021/10/09 04:56:49;;;;;;;;;;;;;;;;;;2117293;28;1201;-83
2021/10/09 04:57:51;;;;;;;;;;;;;;;;;;2116899;28;1740;-83
2021/10/09 04:58:53;;;;;;;;;;;;;;;;;;2117239;28;1392;-83
2021/10/09 04:59:57;;;;;;;;;;;;;;;;;;2109200;28;1979;-83
2021/10/09 05:00:59;;;;;;;;;;;;;;;;;;2115351;27;2059;-84
2021/10/09 05:02:00;;;;;;;;;;;;;;;;;;2116087;28;2072;-84
2021/10/09 05:03:02;;;;;;;;;;;;;;;;;;2108903;28;1292;-83
2021/10/09 05:04:07;;;;;;;;;;;;;;;;;;2109450;28;1344;-83
2021/10/09 05:05:08;;;;;;;;;;;;;;;;;;2109264;28;1326;-83
2021/10/09 05:06:11;;;;;;;;;;;;;;;;;;2116371;28;2015;-82
2021/10/09 05:07:13;;;;;;;;;;;;;;;;;;2122307;27;1949;-81
2021/10/09 05:08:16;;;;;;;;;;;;;;;;;;2117186;28;1483;-82
2021/10/09 05:09:17;;;;;;;;;;;;;;;;;;2117254;28;1487;-82
2021/10/09 05:10:19;;;;;;;;;;;;;;;;;;2117649;27;1860;-84
2021/10/09 05:11:20;;;;;;;;;;;;;;;;;;2125912;27;1521;-84
2021/10/09 05:12:24;;;;;;;;;;;;;;;;;;2116426;28;1988;-85
2021/10/09 05:13:25;;;;;;;;;;;;;;;;;;2117812;27;1618;-84
2021/10/09 05:14:29;;;;;;;;;;;;;;;;;;2117456;28;1315;-84
2021/10/09 05:15:38;;;;;;;;;;;;;;;;;;2111818;28;2082;-84
2021/10/09 05:16:40;;;;;;;;;;;;;;;;;;2117137;28;1351;-84
2021/10/09 05:17:41;;;;;;;;;;;;;;;;;;2124031;27;2055;-85
2021/10/09 05:18:43;;;;;;;;;;;;;;;;;;2125539;27;1220;-84
2021/10/09 05:19:44;;;;;;;;;;;;;;;;;;2125502;27;1914;-85
2021/10/09 05:20:47;;;;;;;;;;;;;;;;;;2113500;27;1959;-84
2021/10/09 05:21:51;;;;;;;;;;;;;;;;;;2117513;28;1285;-87
2021/10/09 05:22:53;;;;;;;;;;;;;;;;;;2116794;28;1325;-84
2021/10/09 05:23:54;;;;;;;;;;;;;;;;;;2117556;28;1203;-84
2021/10/09 05:24:57;;;;;;;;;;;;;;;;;;2117252;27;1360;-84
2021/10/09 05:25:59;;;;;;;;;;;;;;;;;;2116292;27;2059;-81
2021/10/09 05:27:07;;;;;;;;;;;;;;;;;;2115416;28;2143;-80
2021/10/09 05:28:11;;;;;;;;;;;;;;;;;;2108827;28;1424;-81
2021/10/09 05:29:16;;;;;;;;;;;;;;;;;;2108321;28;1351;-80
2021/10/09 05:30:17;;;;;;;;;;;;;;;;;;2108860;28;1959;-81
2021/10/09 05:31:25;;;;;;;;;;;;;;;;;;2117014;28;1356;-80
2021/10/09 05:32:31;;;;;;;;;;;;;;;;;;2116395;28;1882;-80
2021/10/09 05:33:39;;;;;;;;;;;;;;;;;;2108363;28;1758;-80
2021/10/09 05:34:42;;;;;;;;;;;;;;;;;;2109602;28;1362;-80
2021/10/09 05:35:42;;;;;;;;;;;;;;;;;;2117301;28;932;-80
2021/10/09 05:36:45;;;;;;;;;;;;;;;;;;2116806;28;1080;-79
2021/10/09 05:37:46;;;;;;;;;;;;;;;;;;2115566;28;1889;-79
2021/10/09 05:38:48;;;;;;;;;;;;;;;;;;2116806;28;1711;-79
2021/10/09 05:39:49;;;;;;;;;;;;;;;;;;2116991;28;1973;-80
2021/10/09 05:40:50;;;;;;;;;;;;;;;;;;2116350;28;1320;-79
2021/10/09 05:41:53;;;;;;;;;;;;;;;;;;2125309;27;2028;-80
2021/10/09 05:42:54;;;;;;;;;;;;;;;;;;2116278;28;1438;-80
2021/10/09 05:43:55;;;;;;;;;;;;;;;;;;2108428;28;1726;-80
2021/10/09 05:44:57;;;;;;;;;;;;;;;;;;2116750;28;1535;-79
2021/10/09 05:45:59;;;;;;;;;;;;;;;;;;2108670;28;1727;-79
2021/10/09 05:47:02;;;;;;;;;;;;;;;;;;2109265;28;2089;-80
2021/10/09 05:48:03;;;;;;;;;;;;;;;;;;2116171;28;1517;-80
2021/10/09 05:49:06;;;;;;;;;;;;;;;;;;2108553;28;1310;-80
2021/10/09 05:50:09;;;;;;;;;;;;;;;;;;2117188;27;1522;-79
2021/10/09 05:51:14;;;;;;;;;;;;;;;;;;2115942;28;2027;-80
2021/10/09 05:52:20;;;;;;;;;;;;;;;;;;2116757;27;2013;-80
2021/10/09 05:53:42;;;;;;;;;;;;;;;;;;2117764;28;1411;-80
2021/10/09 05:54:50;;;;;;;;;;;;;;;;;;2119160;27;1249;-81
2021/10/09 05:55:54;;;;;;;;;;;;;;;;;;2117585;27;1444;-80
2021/10/09 05:57:02;;;;;;;;;;;;;;;;;;2116446;27;2021;-79
2021/10/09 05:58:07;;;;;;;;;;;;;;;;;;2109069;28;1272;-80
2021/10/09 06:00:48;;;;;;;;;;;;;;;;;;2108631;27;2066;-80
2021/10/09 06:02:20;;;;;;;;;;;;;;;;;;2111431;28;1267;-80
2021/10/09 06:42:03;;;;;;;;;;;;;;;;;;2111219;28;1342;-82
2021/10/09 06:47:22;;;;;;;;;;;;;;;;;;2083150;28;1987;-81
2021/10/09 06:48:57;;;;;;;;;;;;;;;;;;2089548;28;1314;-80
2021/10/09 06:50:16;;;;;;;;;;;;;;;;;;2121446;27;1262;-80
2021/10/09 06:59:34;;;;;;;;;;;;;;;;;;2089719;28;1463;-80
2021/10/09 07:00:35;;;;;;;;;;;;;;;;;;2087501;28;1981;-80
2021/10/09 07:01:37;;;;;;;;;;;;;;;;;;2074220;28;1713;-80
2021/10/09 07:02:43;;;;;;;;;;;;;;;;;;2091917;28;2057;-80
2021/10/09 07:03:44;;;;;;;;;;;;;;;;;;2116138;28;1211;-80
2021/10/09 07:04:46;;;;;;;;;;;;;;;;;;2107626;28;1376;-80
2021/10/09 07:05:48;;;;;;;;;;;;;;;;;;2111842;28;1848;-80
2021/10/09 07:07:07;;;;;;;;;;;;;;;;;;2110074;28;1385;-80
2021/10/09 07:08:16;;;;;;;;;;;;;;;;;;2117232;27;1576;-81
2021/10/09 07:09:32;;;;;;;;;;;;;;;;;;2118140;27;1437;-81
2021/10/09 07:10:42;;;;;;;;;;;;;;;;;;2120206;27;1888;-81
2021/10/09 07:11:43;;;;;;;;;;;;;;;;;;2112645;28;1281;-81
2021/10/09 07:12:45;;;;;;;;;;;;;;;;;;2115101;28;1306;-81
2021/10/09 07:13:45;;;;;;;;;;;;;;;;;;2116361;28;1308;-80
2021/10/09 07:14:47;;;;;;;;;;;;;;;;;;2115782;28;1365;-80
2021/10/09 07:15:48;;;;;;;;;;;;;;;;;;2112509;28;1671;-80
2021/10/09 07:16:50;;;;;;;;;;;;;;;;;;2115405;28;1851;-81
2021/10/09 07:17:51;;;;;;;;;;;;;;;;;;2120613;27;1921;-80
2021/10/09 07:18:54;;;;;;;;;;;;;;;;;;2117503;27;1688;-80
2021/10/09 07:19:55;;;;;;;;;;;;;;;;;;2118872;27;1721;-81
2021/10/09 07:20:57;;;;;;;;;;;;;;;;;;2111307;28;1918;-82
2021/10/09 07:21:58;;;;;;;;;;;;;;;;;;2110243;28;1764;-81
2021/10/09 07:23:00;;;;;;;;;;;;;;;;;;2112275;28;1395;-81
2021/10/09 07:24:02;;;;;;;;;;;;;;;;;;2113589;28;1383;-81
2021/10/09 07:25:04;;;;;;;;;;;;;;;;;;2115729;28;1705;-79
2021/10/09 07:26:07;;;;;;;;;;;;;;;;;;2115945;28;1846;-79
2021/10/09 07:27:08;;;;;;;;;;;;;;;;;;2113764;27;1476;-79
2021/10/09 07:28:10;;;;;;;;;;;;;;;;;;2118868;27;1671;-78
2021/10/09 07:29:12;;;;;;;;;;;;;;;;;;2124051;27;1247;-80
2021/10/09 07:30:15;;;;;;;;;;;;;;;;;;2107515;28;1457;-80
2021/10/09 07:31:16;;;;;;;;;;;;;;;;;;2115833;28;1285;-80
2021/10/09 07:32:17;;;;;;;;;;;;;;;;;;2115594;28;1424;-79
2021/10/09 07:33:18;;;;;;;;;;;;;;;;;;2115831;28;1556;-80
2021/10/09 07:34:20;;;;;;;;;;;;;;;;;;2115485;28;1342;-81
2021/10/09 07:35:22;;;;;;;;;;;;;;;;;;2114707;28;1526;-80
2021/10/09 07:36:24;;;;;;;;;;;;;;;;;;2115676;28;911;-80
2021/10/09 07:37:25;;;;;;;;;;;;;;;;;;2118091;27;2084;-80
2021/10/09 07:38:28;;;;;;;;;;;;;;;;;;2107298;28;1635;-81
2021/10/09 07:39:29;;;;;;;;;;;;;;;;;;2108095;28;1628;-79
2021/10/09 07:40:31;;;;;;;;;;;;;;;;;;2116207;27;2012;-80
2021/10/09 07:41:32;;;;;;;;;;;;;;;;;;2115944;28;1614;-80
2021/10/09 07:42:34;;;;;;;;;;;;;;;;;;2123039;27;1831;-80
2021/10/09 07:43:36;;;;;;;;;;;;;;;;;;2122548;27;1517;-80
2021/10/09 07:44:38;;;;;;;;;;;;;;;;;;2115827;28;1780;-82
2021/10/09 07:45:39;;;;;;;;;;;;;;;;;;2115992;28;1166;-81
2021/10/09 07:46:42;;;;;;;;;;;;;;;;;;2115412;28;1268;-81
2021/10/09 07:47:42;;;;;;;;;;;;;;;;;;2113929;28;1359;-82
2021/10/09 07:48:44;;;;;;;;;;;;;;;;;;2115482;28;1590;-81
2021/10/09 07:49:45;;;;;;;;;;;;;;;;;;2109593;28;1369;-80
2021/10/09 07:50:46;;;;;;;;;;;;;;;;;;2115571;28;1544;-82
2021/10/09 07:51:47;;;;;;;;;;;;;;;;;;2115584;28;1280;-82
2021/10/09 07:52:49;;;;;;;;;;;;;;;;;;2108456;28;2111;-81
2021/10/09 07:53:51;;;;;;;;;;;;;;;;;;2110527;28;1314;-81
2021/10/09 07:54:54;;;;;;;;;;;;;;;;;;2107188;28;1986;-81
2021/10/09 07:55:54;;;;;;;;;;;;;;;;;;2115655;28;2007;-81
2021/10/09 07:56:56;;;;;;;;;;;;;;;;;;2115510;28;2066;-82
2021/10/09 07:57:57;;;;;;;;;;;;;;;;;;2120068;27;1292;-82
2021/10/09 07:58:59;;;;;;;;;;;;;;;;;;2123815;27;1740;-82
2021/10/09 08:00:00;;;;;;;;;;;;;;;;;;2116026;28;1368;-81
2021/10/09 08:01:01;;;;;;;;;;;;;;;;;;2115525;28;1909;-81
2021/10/09 08:02:04;;;;;;;;;;;;;;;;;;2115565;28;1382;-81
2021/10/09 08:03:05;;;;;;;;;;;;;;;;;;2124075;28;1366;-81
2021/10/09 08:04:09;;;;;;;;;;;;;;;;;;2115846;28;1188;-81
2021/10/09 08:05:10;;;;;;;;;;;;;;;;;;2115516;28;1236;-81
2021/10/09 08:06:12;;;;;;;;;;;;;;;;;;2115971;28;1288;-81
2021/10/09 08:07:13;;;;;;;;;;;;;;;;;;2115805;28;1355;-81
2021/10/09 08:08:14;;;;;;;;;;;;;;;;;;2115642;28;1524;-81
2021/10/09 08:09:17;;;;;;;;;;;;;;;;;;2123957;28;1565;-80
2021/10/09 08:10:18;;;;;;;;;;;;;;;;;;2115881;28;1478;-81
2021/10/09 08:11:19;;;;;;;;;;;;;;;;;;2123822;28;1699;-82
2021/10/09 08:12:21;;;;;;;;;;;;;;;;;;2115690;28;1378;-81
2021/10/09 08:13:22;;;;;;;;;;;;;;;;;;2116020;28;1599;-81
2021/10/09 08:14:24;;;;;;;;;;;;;;;;;;2115759;28;1295;-81
2021/10/09 08:15:25;;;;;;;;;;;;;;;;;;2115632;28;1350;-81
2021/10/09 08:16:26;;;;;;;;;;;;;;;;;;2115883;28;1639;-81
2021/10/09 08:17:27;;;;;;;;;;;;;;;;;;2114980;28;2111;-81
2021/10/09 08:18:29;;;;;;;;;;;;;;;;;;2106971;28;1631;-81